Time;durP1;ratioP1;P1;durP2;ratioP2;P2;SDS_P1;SDS_P2;PMS_P1;PMS_P2;Temp;Humidity;BMP_temperature;BMP_pressure;BME280_temperature;BME280_humidity;BME280_pressure;Samples;Min_cycle;Max_cycle;Signal;HPM_P1;HPM_P2
2021/05/04 00:00:57;;;;;;;9.88;6.47;;;4.70;99.90;;;;;;3528223;40;20717;-60
2021/05/04 00:03:23;;;;;;;11.77;5.80;;;4.80;99.90;;;;;;3527069;40;20577;-60
2021/05/04 00:05:48;;;;;;;6.78;5.53;;;4.90;99.90;;;;;;3527950;40;20401;-61
2021/05/04 00:08:14;;;;;;;7.68;5.05;;;5.00;99.90;;;;;;3527915;40;20042;-61
2021/05/04 00:10:40;;;;;;;8.13;5.25;;;5.20;99.90;;;;;;3528045;40;20189;-61
2021/05/04 00:13:06;;;;;;;7.22;5.13;;;5.20;99.90;;;;;;3528035;40;20038;-61
2021/05/04 00:15:31;;;;;;;6.28;4.80;;;5.30;99.90;;;;;;3527840;40;20200;-61
2021/05/04 00:17:57;;;;;;;7.95;4.82;;;5.40;99.90;;;;;;3528477;40;20744;-60
2021/05/04 00:20:23;;;;;;;6.97;4.63;;;5.60;99.90;;;;;;3528083;40;20074;-61
2021/05/04 00:22:49;;;;;;;7.50;4.32;;;5.70;99.90;;;;;;3528142;40;20035;-60
2021/05/04 00:25:15;;;;;;;6.05;3.92;;;5.80;99.90;;;;;;3526466;40;20035;-61
2021/05/04 00:27:40;;;;;;;11.95;4.65;;;5.80;99.90;;;;;;3528072;40;20050;-61
2021/05/04 00:30:07;;;;;;;11.57;4.70;;;5.80;99.90;;;;;;3527572;40;20313;-61
2021/05/04 00:32:32;;;;;;;6.72;4.25;;;5.90;99.90;;;;;;3527410;40;20043;-60
2021/05/04 00:34:58;;;;;;;6.18;4.22;;;6.10;99.90;;;;;;3527798;40;20413;-60
2021/05/04 00:37:24;;;;;;;9.98;4.75;;;6.10;99.90;;;;;;3527692;40;20042;-61
2021/05/04 00:39:49;;;;;;;6.53;3.90;;;6.20;99.90;;;;;;3527934;40;20039;-61
2021/05/04 00:42:15;;;;;;;5.05;4.00;;;6.20;99.90;;;;;;3528227;40;20059;-61
2021/05/04 00:44:41;;;;;;;5.82;4.15;;;6.20;99.90;;;;;;3527623;40;20148;-61
2021/05/04 00:47:06;;;;;;;6.90;4.28;;;6.30;99.90;;;;;;3527968;40;20043;-61
2021/05/04 00:49:32;;;;;;;6.05;3.95;;;6.30;99.90;;;;;;3527568;40;20492;-61
2021/05/04 00:51:58;;;;;;;5.82;3.88;;;6.30;99.90;;;;;;3528041;40;20112;-61
2021/05/04 00:54:24;;;;;;;13.27;4.85;;;6.30;99.90;;;;;;3531458;40;20041;-61
2021/05/04 00:56:55;;;;;;;6.05;3.80;;;6.40;99.90;;;;;;3536732;40;20494;-61
2021/05/04 00:59:23;;;;;;;13.45;4.18;;;6.40;99.90;;;;;;3530604;40;20050;-61
2021/05/04 01:01:52;;;;;;;6.85;3.63;;;6.50;99.90;;;;;;3530648;40;20113;-61
2021/05/04 01:04:19;;;;;;;5.93;3.60;;;6.50;99.90;;;;;;3531579;40;20046;-61
2021/05/04 01:06:45;;;;;;;5.68;4.00;;;6.60;99.90;;;;;;3529349;40;20046;-61
2021/05/04 01:09:14;;;;;;;7.90;3.65;;;6.60;99.90;;;;;;3531193;40;20434;-61
2021/05/04 01:11:40;;;;;;;10.57;4.13;;;6.70;99.90;;;;;;3527481;40;20074;-61
2021/05/04 01:14:05;;;;;;;5.28;3.72;;;6.80;99.90;;;;;;3530294;40;20042;-62
2021/05/04 01:16:31;;;;;;;7.88;3.88;;;6.80;99.90;;;;;;3529870;40;20510;-62
2021/05/04 01:18:57;;;;;;;7.63;3.63;;;6.80;99.90;;;;;;3529174;40;20787;-62
2021/05/04 01:21:22;;;;;;;6.85;3.83;;;6.80;99.90;;;;;;3527369;40;20850;-61
2021/05/04 01:23:48;;;;;;;8.73;4.18;;;6.90;99.90;;;;;;3528462;40;20038;-62
2021/05/04 01:26:14;;;;;;;7.45;4.20;;;7.00;99.90;;;;;;3529399;40;20035;-61
2021/05/04 01:28:40;;;;;;;10.82;3.97;;;6.90;99.90;;;;;;3529210;40;20049;-61
2021/05/04 01:31:05;;;;;;;6.85;3.75;;;6.90;99.90;;;;;;3527580;40;20077;-62
2021/05/04 01:33:31;;;;;;;7.05;3.60;;;7.00;99.90;;;;;;3529274;40;20054;-61
2021/05/04 01:35:57;;;;;;;6.50;3.90;;;6.90;99.90;;;;;;3530763;40;20099;-61
2021/05/04 01:38:23;;;;;;;5.97;3.70;;;6.90;99.90;;;;;;3530256;40;20042;-62
2021/05/04 01:40:49;;;;;;;7.53;3.78;;;6.80;99.90;;;;;;3529941;40;20035;-61
2021/05/04 01:43:15;;;;;;;7.25;4.28;;;4.60;99.90;;;;;;3530150;40;20039;-61
2021/05/04 01:45:40;;;;;;;6.25;3.80;;;6.80;99.90;;;;;;3530247;40;20054;-61
2021/05/04 01:48:06;;;;;;;7.47;3.78;;;6.70;99.90;;;;;;3530611;40;20030;-61
2021/05/04 01:50:32;;;;;;;12.75;3.90;;;6.80;99.90;;;;;;3530544;40;20138;-61
2021/05/04 01:52:57;;;;;;;6.72;3.55;;;6.70;99.90;;;;;;3530217;40;20054;-61
2021/05/04 01:55:23;;;;;;;5.05;3.58;;;9.20;99.90;;;;;;3530712;40;20085;-68
2021/05/04 01:57:49;;;;;;;7.53;3.85;;;6.70;99.90;;;;;;3529992;40;20039;-68
2021/05/04 02:00:16;;;;;;;8.25;3.88;;;6.70;99.90;;;;;;3529315;40;20138;-68
2021/05/04 02:02:41;;;;;;;7.82;3.70;;;6.70;99.90;;;;;;3529309;40;20121;-68
2021/05/04 02:05:08;;;;;;;5.85;3.88;;;7.10;99.90;;;;;;3529680;40;20121;-69
2021/05/04 02:07:33;;;;;;;7.13;3.65;;;7.20;99.90;;;;;;3529117;40;20038;-68
2021/05/04 02:09:59;;;;;;;8.88;3.92;;;7.10;99.90;;;;;;3529222;40;20035;-68
2021/05/04 02:12:25;;;;;;;7.25;4.10;;;6.80;99.90;;;;;;3529589;40;20589;-68
2021/05/04 02:14:51;;;;;;;8.57;4.15;;;7.00;99.90;;;;;;3529434;40;20087;-68
2021/05/04 02:17:17;;;;;;;7.43;3.83;;;7.00;99.90;;;;;;3529671;40;20150;-68
2021/05/04 02:19:43;;;;;;;7.30;3.92;;;7.10;99.90;;;;;;3528725;40;20042;-68
2021/05/04 02:22:09;;;;;;;7.55;4.05;;;6.90;99.90;;;;;;3529500;40;20043;-68
2021/05/04 02:24:35;;;;;;;10.20;3.65;;;7.00;99.90;;;;;;3536418;40;20034;-68
2021/05/04 02:27:01;;;;;;;7.47;4.38;;;;;;;;;;3529061;40;20085;-69
2021/05/04 02:29:27;;;;;;;9.82;4.55;;;;;;;;;;3529013;40;20039;-68
2021/05/04 02:31:53;;;;;;;9.13;4.40;;;7.20;99.90;;;;;;3527484;40;20405;-69
2021/05/04 02:34:19;;;;;;;6.07;3.63;;;6.90;99.90;;;;;;3528698;40;20039;-68
2021/05/04 02:36:45;;;;;;;7.18;4.28;;;7.10;99.90;;;;;;3528628;40;20122;-69
2021/05/04 02:39:11;;;;;;;6.38;3.92;;;7.00;99.90;;;;;;3528379;40;20113;-69
2021/05/04 02:41:36;;;;;;;12.13;5.00;;;6.70;99.90;;;;;;3529125;40;20039;-68
2021/05/04 02:44:03;;;;;;;7.00;4.05;;;7.20;99.90;;;;;;3528827;40;20444;-69
2021/05/04 02:46:29;;;;;;;7.68;4.18;;;7.20;99.90;;;;;;3528794;40;20086;-69
2021/05/04 02:48:58;;;;;;;6.95;4.18;;;7.20;99.90;;;;;;3528813;40;20109;-69
2021/05/04 02:51:24;;;;;;;9.43;4.05;;;7.20;99.90;;;;;;3528748;40;20031;-68
2021/05/04 02:53:50;;;;;;;7.55;4.00;;;7.10;99.90;;;;;;3535672;40;20054;-69
2021/05/04 02:56:16;;;;;;;6.65;4.38;;;7.10;99.90;;;;;;3528988;40;20042;-70
2021/05/04 02:58:42;;;;;;;8.43;4.60;;;7.20;99.90;;;;;;3529179;40;20043;-68
2021/05/04 03:01:08;;;;;;;10.68;4.32;;;7.10;99.90;;;;;;3528769;40;20062;-62
2021/05/04 03:03:35;;;;;;;7.78;4.70;;;7.20;99.90;;;;;;3528867;40;20038;-61
2021/05/04 03:06:02;;;;;;;6.20;4.20;;;7.20;99.90;;;;;;3528318;40;20632;-69
2021/05/04 03:08:31;;;;;;;10.95;4.82;;;7.20;99.90;;;;;;3529178;40;20023;-68
2021/05/04 03:10:57;;;;;;;9.65;4.80;;;7.10;99.90;;;;;;3529129;40;20027;-68
2021/05/04 03:13:24;;;;;;;7.47;4.78;;;7.00;99.90;;;;;;3528882;40;20042;-68
2021/05/04 03:15:50;;;;;;;12.82;4.40;;;7.00;99.90;;;;;;3528981;40;20270;-69
2021/05/04 03:18:16;;;;;;;8.70;4.35;;;6.90;99.90;;;;;;3528938;40;20098;-69
2021/05/04 03:20:42;;;;;;;8.77;4.90;;;7.00;99.90;;;;;;3528410;40;20121;-68
2021/05/04 03:23:07;;;;;;;8.32;4.50;;;7.00;99.90;;;;;;3528552;40;20567;-69
2021/05/04 03:25:33;;;;;;;11.95;4.90;;;7.00;99.90;;;;;;3529146;40;20830;-67
2021/05/04 03:27:59;;;;;;;7.18;5.07;;;7.10;99.90;;;;;;3528480;40;20058;-68
2021/05/04 03:30:26;;;;;;;8.98;4.82;;;7.20;99.90;;;;;;3528869;40;20296;-60
2021/05/04 03:32:52;;;;;;;8.57;4.88;;;7.30;99.90;;;;;;3528519;40;20027;-61
2021/05/04 03:35:18;;;;;;;9.55;4.88;;;7.40;99.90;;;;;;3528672;40;20714;-61
2021/05/04 03:37:45;;;;;;;7.55;4.85;;;7.40;99.90;;;;;;3528621;40;20198;-61
2021/05/04 03:40:11;;;;;;;11.05;5.22;;;7.40;99.90;;;;;;3528430;40;20305;-61
2021/05/04 03:42:37;;;;;;;7.43;4.72;;;7.20;99.90;;;;;;3528229;40;20027;-60
2021/05/04 03:45:04;;;;;;;9.05;5.63;;;8.60;99.90;;;;;;3527863;40;20062;-61
2021/05/04 03:47:30;;;;;;;11.27;5.18;;;7.60;99.90;;;;;;3528914;40;20034;-61
2021/05/04 03:49:55;;;;;;;8.00;4.88;;;7.50;99.90;;;;;;3526948;40;20043;-61
2021/05/04 03:52:21;;;;;;;13.02;5.63;;;7.50;99.90;;;;;;3528686;40;20409;-62
2021/05/04 03:54:47;;;;;;;9.55;5.10;;;7.50;99.90;;;;;;3528598;40;20765;-61
2021/05/04 03:57:13;;;;;;;9.05;5.15;;;7.50;99.90;;;;;;3528328;40;20055;-61
2021/05/04 03:59:39;;;;;;;8.85;5.10;;;7.50;99.90;;;;;;3528962;40;20667;-62
2021/05/04 04:02:05;;;;;;;10.82;5.10;;;7.50;99.90;;;;;;3528861;40;20030;-60
2021/05/04 04:04:31;;;;;;;9.30;5.28;;;7.50;99.90;;;;;;3527980;40;20077;-61
2021/05/04 04:06:56;;;;;;;8.38;5.32;;;7.50;99.90;;;;;;3528106;40;20038;-61
2021/05/04 04:09:22;;;;;;;7.72;5.43;;;7.50;99.90;;;;;;3528681;40;20027;-61
2021/05/04 04:11:48;;;;;;;11.55;5.40;;;7.50;99.90;;;;;;3528047;40;20110;-61
2021/05/04 04:14:14;;;;;;;10.43;5.78;;;7.60;99.90;;;;;;3528152;40;20404;-61
2021/05/04 04:16:39;;;;;;;11.38;5.68;;;7.70;99.90;;;;;;3527975;40;20042;-61
2021/05/04 04:19:05;;;;;;;11.75;4.93;;;7.70;99.90;;;;;;3527723;40;20038;-61
2021/05/04 04:21:30;;;;;;;8.13;4.88;;;7.80;99.90;;;;;;3527693;40;20039;-61
2021/05/04 04:23:56;;;;;;;8.73;4.90;;;5.90;99.90;;;;;;3527650;40;20466;-61
2021/05/04 04:26:22;;;;;;;10.57;5.32;;;7.70;99.90;;;;;;3526885;40;20246;-61
2021/05/04 04:28:47;;;;;;;6.38;4.63;;;7.70;99.90;;;;;;3525701;40;20039;-61
2021/05/04 04:31:13;;;;;;;9.20;4.88;;;7.80;99.90;;;;;;3526942;40;20053;-61
2021/05/04 04:33:39;;;;;;;8.02;5.25;;;7.80;99.90;;;;;;3527294;40;20042;-61
2021/05/04 04:36:05;;;;;;;9.00;5.68;;;7.80;99.90;;;;;;3527689;40;20047;-62
2021/05/04 04:38:30;;;;;;;8.23;4.75;;;7.80;99.90;;;;;;3525472;40;20649;-61
2021/05/04 04:40:56;;;;;;;7.10;4.82;;;7.80;99.90;;;;;;3528012;40;20097;-61
2021/05/04 04:43:22;;;;;;;10.20;5.00;;;7.90;99.90;;;;;;3527215;40;20070;-61
2021/05/04 04:45:48;;;;;;;7.90;4.30;;;7.90;99.90;;;;;;3527988;40;20039;-61
2021/05/04 04:48:13;;;;;;;8.70;5.15;;;10.00;99.90;;;;;;3534414;40;20042;-62
2021/05/04 04:50:39;;;;;;;12.90;4.65;;;8.10;99.90;;;;;;3527199;40;20058;-61
2021/05/04 04:53:05;;;;;;;11.50;5.57;;;8.20;99.90;;;;;;3526788;40;20047;-62
2021/05/04 04:55:31;;;;;;;8.98;4.95;;;8.30;99.90;;;;;;3527761;40;20066;-61
2021/05/04 04:57:58;;;;;;;10.20;4.97;;;8.30;99.90;;;;;;3527824;40;20035;-63
2021/05/04 05:00:23;;;;;;;8.55;5.22;;;8.30;99.90;;;;;;3527760;40;20399;-60
2021/05/04 05:02:49;;;;;;;9.45;5.57;;;8.30;99.90;;;;;;3528796;40;20046;-60
2021/05/04 05:05:15;;;;;;;13.07;6.65;;;8.30;99.90;;;;;;3535093;40;20720;-60
2021/05/04 05:07:41;;;;;;;11.25;5.38;;;8.40;99.90;;;;;;3529469;40;20051;-61
2021/05/04 05:10:07;;;;;;;8.40;5.18;;;8.40;99.90;;;;;;3529765;40;20031;-67
2021/05/04 05:12:33;;;;;;;8.15;4.85;;;8.50;99.90;;;;;;3528704;40;20066;-61
2021/05/04 05:15:01;;;;;;;13.68;4.82;;;8.60;99.90;;;;;;3529386;40;20031;-60
2021/05/04 05:17:27;;;;;;;8.18;5.13;;;8.60;99.90;;;;;;3528896;40;20414;-60
2021/05/04 05:19:53;;;;;;;8.25;4.65;;;8.70;99.90;;;;;;3528061;40;20755;-60
2021/05/04 05:22:19;;;;;;;10.63;4.78;;;8.80;99.90;;;;;;3528434;40;20155;-60
2021/05/04 05:24:44;;;;;;;8.48;4.53;;;8.90;99.90;;;;;;3528087;40;20313;-61
2021/05/04 05:27:10;;;;;;;8.93;4.88;;;8.90;99.90;;;;;;3527980;40;20047;-60
2021/05/04 05:29:36;;;;;;;8.00;4.97;;;8.90;99.90;;;;;;3527394;40;20495;-61
2021/05/04 05:32:03;;;;;;;10.05;5.13;;;9.00;99.90;;;;;;3527927;40;20038;-60
2021/05/04 05:34:29;;;;;;;11.10;4.65;;;9.10;99.90;;;;;;3527542;40;20456;-60
2021/05/04 05:36:55;;;;;;;7.78;4.78;;;9.30;99.90;;;;;;3528818;40;20046;-60
2021/05/04 05:39:21;;;;;;;8.57;4.80;;;9.40;99.30;;;;;;3531933;40;20085;-61
2021/05/04 05:41:46;;;;;;;14.00;4.78;;;9.50;99.20;;;;;;3532592;40;20945;-60
2021/05/04 05:44:13;;;;;;;8.95;4.43;;;9.60;98.90;;;;;;3533152;40;20023;-60
2021/05/04 05:46:40;;;;;;;7.85;4.72;;;7.60;98.70;;;;;;3533451;40;20039;-60
2021/05/04 05:49:06;;;;;;;8.00;4.90;;;9.70;98.50;;;;;;3532648;40;20042;-62
2021/05/04 05:51:32;;;;;;;9.63;5.35;;;9.70;98.50;;;;;;3532933;40;20409;-67
2021/05/04 05:53:57;;;;;;;11.82;5.13;;;9.80;98.20;;;;;;3533232;40;20095;-61
2021/05/04 05:56:23;;;;;;;13.55;4.97;;;9.80;98.90;;;;;;3532279;40;20530;-60
2021/05/04 05:58:49;;;;;;;11.63;4.70;;;9.90;98.60;;;;;;3532930;40;20037;-60
2021/05/04 06:01:15;;;;;;;14.27;5.25;;;9.90;98.90;;;;;;3532348;40;20047;-60
2021/05/04 06:03:41;;;;;;;8.65;4.93;;;10.10;97.60;;;;;;3532497;40;20042;-60
2021/05/04 06:06:06;;;;;;;9.93;5.47;;;10.20;97.90;;;;;;3532209;40;20035;-60
2021/05/04 06:08:32;;;;;;;10.75;5.88;;;10.20;98.50;;;;;;3532353;40;20031;-61
2021/05/04 06:10:58;;;;;;;9.35;5.47;;;10.30;98.60;;;;;;3530849;40;20043;-61
2021/05/04 06:13:24;;;;;;;9.88;5.10;;;10.90;97.80;;;;;;3531996;40;20093;-61
2021/05/04 06:15:50;;;;;;;7.55;4.53;;;10.40;98.10;;;;;;3532391;40;20477;-61
2021/05/04 06:18:16;;;;;;;8.15;4.53;;;10.40;97.90;;;;;;3532340;40;20059;-60
2021/05/04 06:20:42;;;;;;;10.18;5.03;;;10.50;98.30;;;;;;3532382;40;20313;-60
2021/05/04 06:23:08;;;;;;;16.35;5.05;;;10.60;96.80;;;;;;3531914;40;20051;-61
2021/05/04 06:25:34;;;;;;;6.40;4.63;;;10.60;97.20;;;;;;3531708;40;20042;-60
2021/05/04 06:28:10;;;;;;;10.98;4.72;;;10.60;96.60;;;;;;3532311;40;20031;-60
2021/05/04 06:30:37;;;;;;;6.10;4.25;;;10.60;97.20;;;;;;3531258;40;20141;-61
2021/05/04 06:33:05;;;;;;;7.40;4.68;;;10.60;97.80;;;;;;3532165;40;20035;-61
2021/05/04 06:35:33;;;;;;;13.13;5.28;;;10.60;97.50;;;;;;3532321;40;20050;-60
2021/05/04 06:37:59;;;;;;;8.25;4.30;;;10.60;97.70;;;;;;3531542;40;20047;-60
2021/05/04 06:40:25;;;;;;;8.25;4.80;;;10.60;97.70;;;;;;3531129;40;20439;-60
2021/05/04 06:42:50;;;;;;;10.80;4.60;;;10.60;97.50;;;;;;3531951;40;20032;-61
2021/05/04 06:45:16;;;;;;;7.53;4.30;;;10.70;97.50;;;;;;3530970;40;20348;-60
2021/05/04 06:47:42;;;;;;;8.50;4.65;;;11.20;97.80;;;;;;3531990;40;20043;-60
2021/05/04 06:50:08;;;;;;;9.43;4.78;;;10.70;97.70;;;;;;3530320;40;20035;-60
2021/05/04 06:52:34;;;;;;;9.45;4.50;;;10.80;98.00;;;;;;3531510;40;20030;-60
2021/05/04 06:55:00;;;;;;;7.57;4.75;;;10.80;97.40;;;;;;3531257;40;20125;-60
2021/05/04 06:57:25;;;;;;;10.00;4.68;;;10.70;97.40;;;;;;3531905;40;20627;-61
2021/05/04 06:59:51;;;;;;;11.30;5.18;;;10.80;97.90;;;;;;3530181;40;20349;-61
2021/05/04 07:02:18;;;;;;;7.82;4.35;;;10.80;97.50;;;;;;3530441;40;20047;-60
2021/05/04 07:04:43;;;;;;;10.48;5.20;;;10.90;97.20;;;;;;3532428;40;20487;-60
2021/05/04 07:07:09;;;;;;;9.32;4.80;;;10.90;97.60;;;;;;3531782;40;20034;-68
2021/05/04 07:09:35;;;;;;;11.90;5.00;;;11.00;97.80;;;;;;3531062;40;20031;-69
2021/05/04 07:12:00;;;;;;;17.80;9.23;;;11.10;98.60;;;;;;3532237;40;20070;-67
2021/05/04 07:14:26;;;;;;;6.68;4.63;;;11.10;98.40;;;;;;3532218;40;20674;-69
2021/05/04 07:16:52;;;;;;;7.65;4.85;;;11.10;98.80;;;;;;3531084;40;20034;-68
2021/05/04 07:19:18;;;;;;;10.15;5.05;;;10.90;99.90;;;;;;3531494;40;20031;-68
2021/05/04 07:21:44;;;;;;;13.18;6.88;;;10.70;99.90;;;;;;3531467;40;20039;-68
2021/05/04 07:24:11;;;;;;;8.70;4.63;;;10.50;99.90;;;;;;3529734;40;20105;-67
2021/05/04 07:26:39;;;;;;;7.57;4.70;;;10.30;99.90;;;;;;3531805;40;20070;-67
2021/05/04 07:29:04;;;;;;;11.20;5.22;;;10.20;99.90;;;;;;3531768;40;20038;-67
2021/05/04 07:31:30;;;;;;;7.47;4.63;;;10.00;99.90;;;;;;3530133;40;20035;-69
2021/05/04 07:33:56;;;;;;;7.95;5.13;;;9.80;99.90;;;;;;3531697;40;20023;-67
2021/05/04 07:36:22;;;;;;;6.38;4.03;;;9.80;99.90;;;;;;3530845;40;20046;-67
2021/05/04 07:38:48;;;;;;;10.75;4.07;;;10.00;99.90;;;;;;3530964;40;20053;-67
2021/05/04 07:41:14;;;;;;;7.07;3.95;;;10.00;99.90;;;;;;3531232;40;20038;-68
2021/05/04 07:43:39;;;;;;;6.35;4.05;;;10.10;99.90;;;;;;3531469;40;20125;-67
2021/05/04 07:46:05;;;;;;;5.95;3.20;;;10.30;99.90;;;;;;3531645;40;20125;-67
2021/05/04 07:48:31;;;;;;;6.40;3.83;;;10.40;99.90;;;;;;3529853;40;20079;-68
2021/05/04 07:50:57;;;;;;;5.95;3.60;;;9.40;99.90;;;;;;3529809;40;20610;-67
2021/05/04 07:53:23;;;;;;;16.33;4.40;;;10.80;99.90;;;;;;3529929;40;20664;-67
2021/05/04 07:55:49;;;;;;;8.27;3.92;;;10.90;99.90;;;;;;3530763;40;20035;-68
2021/05/04 07:58:14;;;;;;;6.30;3.50;;;11.10;99.90;;;;;;3531074;40;20154;-68
2021/05/04 08:00:41;;;;;;;6.30;3.20;;;11.20;99.90;;;;;;3530317;40;20059;-67
2021/05/04 08:03:07;;;;;;;4.20;3.03;;;11.40;99.90;;;;;;3531140;40;20035;-68
2021/05/04 08:05:32;;;;;;;5.47;3.25;;;11.50;99.90;;;;;;3531009;40;20484;-68
2021/05/04 08:07:58;;;;;;;4.45;3.17;;;11.60;99.90;;;;;;3529748;40;20045;-68
2021/05/04 08:10:24;;;;;;;7.78;3.50;;;11.70;99.70;;;;;;3530406;40;20042;-67
2021/05/04 08:12:50;;;;;;;6.43;3.13;;;11.90;99.90;;;;;;3531004;40;20050;-67
2021/05/04 08:15:19;;;;;;;5.05;3.13;;;12.00;98.80;;;;;;3530865;40;20038;-68
2021/05/04 08:17:56;;;;;;;7.15;3.13;;;12.00;99.90;;;;;;3529183;40;20039;-68
2021/05/04 08:20:26;;;;;;;7.45;3.10;;;12.20;98.50;;;;;;3530446;40;20676;-67
2021/05/04 08:22:52;;;;;;;6.35;2.90;;;12.30;98.20;;;;;;3530178;40;20034;-67
2021/05/04 08:25:19;;;;;;;7.68;3.40;;;12.30;98.30;;;;;;3530312;40;20089;-67
2021/05/04 08:27:45;;;;;;;6.70;2.55;;;12.40;97.70;;;;;;3530441;40;20438;-67
2021/05/04 08:30:11;;;;;;;11.35;5.57;;;12.30;97.60;;;;;;3530397;40;20043;-67
2021/05/04 08:32:37;;;;;;;5.07;2.80;;;12.30;97.30;;;;;;3528897;40;20459;-68
2021/05/04 08:35:03;;;;;;;8.27;3.75;;;12.50;97.70;;;;;;3530665;40;20043;-69
2021/05/04 08:37:28;;;;;;;5.90;2.83;;;12.60;97.80;;;;;;3530743;40;20031;-67
2021/05/04 08:39:54;;;;;;;6.68;3.33;;;12.60;96.80;;;;;;3530678;40;20886;-68
2021/05/04 08:42:20;;;;;;;10.10;3.47;;;12.90;97.00;;;;;;3525782;40;20035;-68
2021/05/04 08:44:52;;;;;;;13.70;4.93;;;13.10;97.40;;;;;;3527295;40;20070;-68
2021/05/04 08:47:19;;;;;;;9.40;3.50;;;13.20;95.30;;;;;;3529602;40;20047;-67
2021/05/04 08:49:46;;;;;;;9.00;3.03;;;13.40;96.00;;;;;;3522995;40;20051;-67
2021/05/04 08:52:12;;;;;;;4.22;2.38;;;13.50;95.70;;;;;;3513442;40;20287;-68
2021/05/04 08:54:38;;;;;;;7.82;3.28;;;13.30;95.20;;;;;;3531563;40;20677;-65
2021/05/04 08:57:04;;;;;;;8.05;3.85;;;13.30;96.60;;;;;;3528198;40;20067;-67
2021/05/04 08:59:30;;;;;;;6.25;3.47;;;13.30;95.40;;;;;;3530790;40;20030;-68
2021/05/04 09:01:56;;;;;;;10.95;3.67;;;13.40;95.20;;;;;;3529639;40;20039;-68
2021/05/04 09:04:48;;;;;;;9.32;3.22;;;13.30;94.90;;;;;;3530790;40;20034;-68
2021/05/04 09:07:27;;;;;;;11.35;4.43;;;13.20;93.40;;;;;;3531111;40;20393;-69
2021/05/04 09:10:38;;;;;;;11.43;4.18;;;13.30;95.00;;;;;;3530436;40;20047;-68
2021/05/04 09:13:30;;;;;;;9.73;4.10;;;13.30;93.20;;;;;;3538437;40;20045;-67
2021/05/04 09:21:13;;;;;;;9.32;2.55;;;13.70;90.80;;;;;;3531681;40;20367;-67
2021/05/04 09:23:41;;;;;;;15.93;5.45;;;13.90;90.50;;;;;;3531654;40;20077;-67
2021/05/04 09:26:22;;;;;;;7.07;2.75;;;14.20;87.90;;;;;;3532735;40;20309;-68
2021/05/04 09:28:52;;;;;;;11.80;4.13;;;14.10;88.80;;;;;;3531857;40;20046;-67
2021/05/04 09:31:26;;;;;;;13.93;5.13;;;14.20;85.60;;;;;;3529680;40;20117;-68
2021/05/04 09:33:53;;;;;;;7.45;2.53;;;14.30;88.10;;;;;;3530905;40;20079;-68
2021/05/04 09:36:38;;;;;;;25.55;6.75;;;14.40;86.90;;;;;;3531470;40;20050;-68
2021/05/04 09:39:05;;;;;;;19.67;4.15;;;14.40;84.30;;;;;;3530802;40;20058;-68
2021/05/04 09:41:31;;;;;;;12.13;4.13;;;14.50;84.60;;;;;;3529725;40;20385;-67
2021/05/04 09:43:57;;;;;;;10.18;3.38;;;14.50;84.60;;;;;;3531326;40;20035;-66
2021/05/04 09:46:48;;;;;;;4.38;3.58;;;14.30;81.10;;;;;;3530962;40;20121;-68
2021/05/04 09:49:36;;;;;;;4.40;2.40;;;14.60;81.50;;;;;;3529832;40;20116;-67
2021/05/04 09:55:03;;;;;;;8.10;3.90;;;14.90;77.80;;;;;;3532049;40;20116;-67
2021/05/04 09:57:43;;;;;;;14.32;2.42;;;14.60;80.90;;;;;;3532580;40;20038;-67
2021/05/04 10:00:17;;;;;;;11.35;3.13;;;14.60;78.60;;;;;;3532252;40;20047;-67
2021/05/04 10:02:45;;;;;;;21.45;10.32;;;14.80;80.10;;;;;;3532572;40;20035;-67
2021/05/04 10:05:14;;;;;;;7.00;3.03;;;14.60;78.70;;;;;;3533082;40;20442;-67
2021/05/04 10:07:40;;;;;;;5.57;3.08;;;14.40;80.90;;;;;;3540129;40;20417;-67
2021/05/04 10:10:08;;;;;;;10.55;3.83;;;14.50;81.30;;;;;;3532547;40;20524;-68
2021/05/04 10:12:37;;;;;;;8.82;2.50;;;14.70;79.70;;;;;;3530917;40;20043;-68
2021/05/04 10:15:11;;;;;;;6.68;2.25;;;14.90;80.10;;;;;;3533040;40;20129;-67
2021/05/04 10:17:39;;;;;;;4.72;1.90;;;14.90;77.30;;;;;;3532572;40;20693;-67
2021/05/04 10:20:19;;;;;;;6.90;1.98;;;14.80;76.70;;;;;;3532291;40;20070;-67
2021/05/04 10:22:45;;;;;;;8.93;1.88;;;14.70;77.30;;;;;;3531932;40;20028;-68
2021/05/04 10:25:15;;;;;;;8.55;2.03;;;14.70;77.80;;;;;;3530702;40;20035;-67
2021/05/04 10:27:43;;;;;;;4.32;1.50;;;14.70;76.10;;;;;;3530761;40;20651;-67
2021/05/04 10:30:10;;;;;;;6.00;2.60;;;14.70;76.90;;;;;;3532037;40;20722;-67
2021/05/04 10:32:59;;;;;;;7.35;2.60;;;14.60;79.60;;;;;;3532071;40;20043;-67
2021/05/04 10:35:32;;;;;;;9.82;1.98;;;14.50;79.70;;;;;;3531622;40;20117;-68
2021/05/04 10:38:06;;;;;;;2.83;1.52;;;14.30;78.60;;;;;;3532065;40;20039;-67
2021/05/04 10:40:37;;;;;;;9.25;2.08;;;14.00;81.50;;;;;;3531897;40;20051;-67
2021/05/04 10:43:23;;;;;;;7.75;2.05;;;14.00;81.90;;;;;;3532289;40;20110;-68
2021/05/04 10:45:57;;;;;;;8.75;2.47;;;14.10;83.40;;;;;;3531538;40;20085;-67
2021/05/04 10:48:38;;;;;;;5.68;2.10;;;14.20;80.70;;;;;;3531896;40;20051;-67
2021/05/04 10:51:16;;;;;;;5.80;2.40;;;14.40;81.70;;;;;;3531433;40;20039;-67
2021/05/04 10:54:00;;;;;;;9.88;1.88;;;14.50;82.00;;;;;;3531835;40;20046;-68
2021/05/04 10:56:33;;;;;;;5.85;1.75;;;14.50;83.80;;;;;;3532326;40;20654;-67
2021/05/04 10:58:59;;;;;;;7.05;2.35;;;14.60;83.00;;;;;;3531737;40;20082;-68
2021/05/04 11:01:25;;;;;;;3.67;1.73;;;14.70;83.00;;;;;;3531480;40;20500;-67
2021/05/04 11:03:55;;;;;;;8.52;1.70;;;14.70;82.50;;;;;;3531787;40;20053;-67
2021/05/04 11:06:24;;;;;;;9.75;2.25;;;14.80;82.80;;;;;;3531802;40;20051;-67
2021/05/04 11:08:50;;;;;;;10.82;1.80;;;14.90;86.20;;;;;;3530364;40;20467;-72
2021/05/04 11:11:24;;;;;;;6.15;2.05;;;15.30;85.30;;;;;;3532222;40;20049;-68
2021/05/04 11:13:52;;;;;;;11.73;1.42;;;15.50;82.70;;;;;;3532051;40;20342;-67
2021/05/04 11:16:27;;;;;;;10.35;1.60;;;15.60;82.00;;;;;;3531327;40;20035;-67
2021/05/04 11:19:01;;;;;;;;;;;15.40;81.40;;;;;;3532051;40;20034;-67
2021/05/04 11:21:47;;;;;;;9.32;2.17;;;15.20;83.90;;;;;;3530034;40;20029;-67
2021/05/04 11:24:29;;;;;;;9.70;2.00;;;15.20;81.40;;;;;;3531478;40;20035;-67
2021/05/04 11:26:57;;;;;;;9.00;1.60;;;15.10;83.90;;;;;;3531948;40;20058;-67
2021/05/04 11:29:45;;;;;;;2.35;0.98;;;15.10;84.30;;;;;;3538653;40;20078;-67
2021/05/04 11:32:10;;;;;;;5.20;2.25;;;14.90;80.90;;;;;;3531030;40;20445;-68
2021/05/04 11:34:46;;;;;;;12.10;2.03;;;15.10;81.60;;;;;;3532120;40;20039;-67
2021/05/04 11:37:22;;;;;;;9.25;1.80;;;15.10;81.20;;;;;;3530084;40;20066;-67
2021/05/04 11:39:53;;;;;;;5.28;1.65;;;15.30;82.50;;;;;;3530347;40;20027;-68
2021/05/04 11:42:22;;;;;;;14.50;1.67;;;15.30;81.70;;;;;;3530932;40;20046;-67
2021/05/04 11:44:48;;;;;;;2.85;1.45;;;15.10;81.00;;;;;;3529555;40;20038;-67
2021/05/04 11:47:25;;;;;;;6.07;1.30;;;14.90;82.60;;;;;;3529075;40;20043;-68
2021/05/04 11:49:51;;;;;;;4.80;1.30;;;14.70;82.70;;;;;;3529986;40;20051;-68
2021/05/04 11:52:17;;;;;;;6.97;1.38;;;14.40;84.60;;;;;;3536639;40;20061;-68
2021/05/04 11:54:46;;;;;;;8.95;2.55;;;14.30;85.80;;;;;;3529943;40;20109;-67
2021/05/04 11:57:13;;;;;;;4.35;1.65;;;14.20;87.30;;;;;;3529679;40;20058;-68
2021/05/04 11:59:39;;;;;;;1.77;1.40;;;14.20;86.10;;;;;;3530061;40;20043;-67
2021/05/04 12:02:05;;;;;;;5.13;1.50;;;14.00;87.30;;;;;;3529733;40;20038;-67
2021/05/04 12:04:52;;;;;;;8.88;1.40;;;14.00;89.20;;;;;;3530002;40;20035;-67
2021/05/04 12:07:44;;;;;;;3.20;1.40;;;14.10;90.30;;;;;;3527989;40;20046;-67
2021/05/04 12:10:16;;;;;;;4.25;1.55;;;14.10;90.00;;;;;;3528944;40;20065;-67
2021/05/04 12:12:48;;;;;;;11.95;1.77;;;13.90;89.30;;;;;;3527745;40;20655;-67
2021/05/04 12:15:17;;;;;;;6.30;1.50;;;13.90;90.20;;;;;;3529053;40;20086;-68
2021/05/04 12:17:55;;;;;;;3.08;1.38;;;14.10;91.60;;;;;;3529471;40;20139;-68
2021/05/04 12:20:21;;;;;;;3.83;1.33;;;14.20;90.60;;;;;;3527856;40;20035;-67
2021/05/04 12:22:50;;;;;;;3.78;1.33;;;14.40;90.80;;;;;;3528834;40;20046;-68
2021/05/04 12:25:18;;;;;;;3.40;1.30;;;14.60;90.90;;;;;;3528580;40;20404;-67
2021/05/04 12:27:46;;;;;;;2.08;1.30;;;14.90;89.60;;;;;;3527499;40;20043;-67
2021/05/04 12:30:14;;;;;;;4.40;1.20;;;15.30;85.90;;;;;;3528473;40;20739;-67
2021/05/04 12:32:40;;;;;;;1.73;1.15;;;15.80;83.20;;;;;;3528752;40;20050;-69
2021/05/04 12:35:30;;;;;;;6.07;1.30;;;15.80;84.00;;;;;;3528780;40;20042;-68
2021/05/04 12:38:19;;;;;;;5.65;1.50;;;15.60;86.20;;;;;;3528245;40;20141;-67
2021/05/04 12:41:15;;;;;;;7.10;1.13;;;15.50;84.80;;;;;;3528032;40;20047;-67
2021/05/04 12:43:58;;;;;;;4.00;1.25;;;15.30;84.60;;;;;;3528786;40;20082;-68
2021/05/04 12:46:27;;;;;;;7.85;2.28;;;15.40;85.50;;;;;;3527960;40;20054;-68
2021/05/04 12:48:53;;;;;;;8.07;1.27;;;15.20;87.70;;;;;;3524806;40;20043;-67
2021/05/04 12:51:43;;;;;;;10.80;1.50;;;15.20;86.40;;;;;;3530467;40;20433;-68
2021/05/04 12:54:18;;;;;;;11.05;2.33;;;14.80;86.90;;;;;;3530646;40;20046;-67
2021/05/04 12:56:46;;;;;;;13.40;1.58;;;14.70;89.20;;;;;;3530144;40;20035;-67
2021/05/04 12:59:14;;;;;;;5.55;1.00;;;14.80;88.50;;;;;;3530115;40;20112;-67
2021/05/04 13:01:48;;;;;;;8.20;1.40;;;15.20;86.50;;;;;;3528150;40;20550;-67
2021/05/04 13:04:31;;;;;;;4.75;1.30;;;15.60;84.10;;;;;;3528621;40;20051;-67